sensor_id;sensor_type;location;lat;lon;timestamp;pressure;altitude;pressure_sealevel;temperature
76541;BMP280;65385;55.772;37.658;2023-02-28T00:00:19;100195.06;;;-7.46
76541;BMP280;65385;55.772;37.658;2023-02-28T00:01:21;100189.75;;;-7.43
76541;BMP280;65385;55.772;37.658;2023-02-28T00:02:21;100196.44;;;-7.42
76541;BMP280;65385;55.772;37.658;2023-02-28T00:03:22;100183.84;;;-7.44
76541;BMP280;65385;55.772;37.658;2023-02-28T00:04:22;100187.91;;;-7.41
76541;BMP280;65385;55.772;37.658;2023-02-28T00:05:25;100178.84;;;-7.34
76541;BMP280;65385;55.772;37.658;2023-02-28T00:06:26;100181.91;;;-7.40
76541;BMP280;65385;55.772;37.658;2023-02-28T00:07:27;100179.47;;;-7.42
76541;BMP280;65385;55.772;37.658;2023-02-28T00:08:28;100174.28;;;-7.40
76541;BMP280;65385;55.772;37.658;2023-02-28T00:09:29;100180.97;;;-7.39
76541;BMP280;65385;55.772;37.658;2023-02-28T00:10:30;100189.50;;;-7.40
76541;BMP280;65385;55.772;37.658;2023-02-28T00:11:31;100185.09;;;-7.38
76541;BMP280;65385;55.772;37.658;2023-02-28T00:12:32;100171.97;;;-7.43
76541;BMP280;65385;55.772;37.658;2023-02-28T00:13:35;100171.06;;;-7.42
76541;BMP280;65385;55.772;37.658;2023-02-28T00:14:37;100176.69;;;-7.39
76541;BMP280;65385;55.772;37.658;2023-02-28T00:15:37;100170.13;;;-7.41
76541;BMP280;65385;55.772;37.658;2023-02-28T00:16:38;100169.44;;;-7.43
76541;BMP280;65385;55.772;37.658;2023-02-28T00:17:38;100174.53;;;-7.43
76541;BMP280;65385;55.772;37.658;2023-02-28T00:18:39;100169.69;;;-7.46
76541;BMP280;65385;55.772;37.658;2023-02-28T00:19:40;100174.88;;;-7.48
76541;BMP280;65385;55.772;37.658;2023-02-28T00:20:41;100169.13;;;-7.50
76541;BMP280;65385;55.772;37.658;2023-02-28T00:21:41;100167.63;;;-7.52
76541;BMP280;65385;55.772;37.658;2023-02-28T00:22:45;100166.69;;;-7.51
76541;BMP280;65385;55.772;37.658;2023-02-28T00:23:46;100171.78;;;-7.51
76541;BMP280;65385;55.772;37.658;2023-02-28T00:24:47;100171.78;;;-7.51
76541;BMP280;65385;55.772;37.658;2023-02-28T00:25:47;100171.78;;;-7.51
76541;BMP280;65385;55.772;37.658;2023-02-28T00:26:48;100166.03;;;-7.53
76541;BMP280;65385;55.772;37.658;2023-02-28T00:27:48;100169.50;;;-7.54
76541;BMP280;65385;55.772;37.658;2023-02-28T00:28:49;100167.16;;;-7.57
76541;BMP280;65385;55.772;37.658;2023-02-28T00:29:52;100167.03;;;-7.56
76541;BMP280;65385;55.772;37.658;2023-02-28T00:30:54;100175.22;;;-7.52
76541;BMP280;65385;55.772;37.658;2023-02-28T00:31:54;100173.66;;;-7.53
76541;BMP280;65385;55.772;37.658;2023-02-28T00:32:55;100164.28;;;-7.53
76541;BMP280;65385;55.772;37.658;2023-02-28T00:33:55;100168.56;;;-7.53
76541;BMP280;65385;55.772;37.658;2023-02-28T00:34:56;100164.50;;;-7.56
76541;BMP280;65385;55.772;37.658;2023-02-28T00:36:04;100159.56;;;-7.57
76541;BMP280;65385;55.772;37.658;2023-02-28T00:37:06;100164.91;;;-7.60
76541;BMP280;65385;55.772;37.658;2023-02-28T00:38:07;100157.50;;;-7.63
76541;BMP280;65385;55.772;37.658;2023-02-28T00:39:09;100157.72;;;-7.66
76541;BMP280;65385;55.772;37.658;2023-02-28T00:40:10;100157.72;;;-7.66
76541;BMP280;65385;55.772;37.658;2023-02-28T00:41:12;100153.56;;;-7.67
76541;BMP280;65385;55.772;37.658;2023-02-28T00:42:14;100151.50;;;-7.62
76541;BMP280;65385;55.772;37.658;2023-02-28T00:43:14;100156.09;;;-7.67
76541;BMP280;65385;55.772;37.658;2023-02-28T00:44:15;100150.25;;;-7.68
76541;BMP280;65385;55.772;37.658;2023-02-28T00:45:15;100158.00;;;-7.69
76541;BMP280;65385;55.772;37.658;2023-02-28T00:46:16;100155.56;;;-7.71
76541;BMP280;65385;55.772;37.658;2023-02-28T00:47:16;100151.53;;;-7.74
76541;BMP280;65385;55.772;37.658;2023-02-28T00:48:17;100147.53;;;-7.76
76541;BMP280;65385;55.772;37.658;2023-02-28T00:49:17;100151.53;;;-7.74
76541;BMP280;65385;55.772;37.658;2023-02-28T00:50:19;100146.72;;;-7.77
76541;BMP280;65385;55.772;37.658;2023-02-28T00:51:20;100143.13;;;-7.74
76541;BMP280;65385;55.772;37.658;2023-02-28T00:52:20;100146.72;;;-7.77
76541;BMP280;65385;55.772;37.658;2023-02-28T00:53:21;100143.47;;;-7.79
76541;BMP280;65385;55.772;37.658;2023-02-28T00:54:23;100134.47;;;-7.72
76541;BMP280;65385;55.772;37.658;2023-02-28T00:55:24;100135.50;;;-7.74
76541;BMP280;65385;55.772;37.658;2023-02-28T00:56:24;100140.00;;;-7.78
76541;BMP280;65385;55.772;37.658;2023-02-28T00:57:25;100137.59;;;-7.79
76541;BMP280;65385;55.772;37.658;2023-02-28T00:58:26;100135.03;;;-7.79
76541;BMP280;65385;55.772;37.658;2023-02-28T00:59:26;100145.31;;;-7.81
76541;BMP280;65385;55.772;37.658;2023-02-28T01:00:27;100135.44;;;-7.84
76541;BMP280;65385;55.772;37.658;2023-02-28T01:01:27;100131.41;;;-7.86
76541;BMP280;65385;55.772;37.658;2023-02-28T01:02:28;100131.50;;;-7.88
76541;BMP280;65385;55.772;37.658;2023-02-28T01:03:29;100118.84;;;-7.88
76541;BMP280;65385;55.772;37.658;2023-02-28T01:04:29;100124.81;;;-7.89
76541;BMP280;65385;55.772;37.658;2023-02-28T01:05:29;100122.19;;;-7.87
76541;BMP280;65385;55.772;37.658;2023-02-28T01:06:30;100128.06;;;-7.87
76541;BMP280;65385;55.772;37.658;2023-02-28T01:07:31;100122.25;;;-7.89
76541;BMP280;65385;55.772;37.658;2023-02-28T01:08:32;100112.13;;;-7.89
76541;BMP280;65385;55.772;37.658;2023-02-28T01:09:33;100113.19;;;-7.91
76541;BMP280;65385;55.772;37.658;2023-02-28T01:10:33;100107.31;;;-7.92
76541;BMP280;65385;55.772;37.658;2023-02-28T01:11:34;100106.50;;;-7.92
76541;BMP280;65385;55.772;37.658;2023-02-28T01:12:35;100105.94;;;-7.96
76541;BMP280;65385;55.772;37.658;2023-02-28T01:13:36;100093.41;;;-7.97
76541;BMP280;65385;55.772;37.658;2023-02-28T01:14:37;100086.56;;;-7.97
76541;BMP280;65385;55.772;37.658;2023-02-28T01:15:39;100090.59;;;-7.94
76541;BMP280;65385;55.772;37.658;2023-02-28T01:16:42;100087.38;;;-7.96
76541;BMP280;65385;55.772;37.658;2023-02-28T01:17:43;100087.38;;;-7.96
76541;BMP280;65385;55.772;37.658;2023-02-28T01:18:44;100076.41;;;-7.97
76541;BMP280;65385;55.772;37.658;2023-02-28T01:19:44;100077.09;;;-7.95
76541;BMP280;65385;55.772;37.658;2023-02-28T01:20:45;100074.94;;;-7.99
76541;BMP280;65385;55.772;37.658;2023-02-28T01:21:46;100079.44;;;-8.03
76541;BMP280;65385;55.772;37.658;2023-02-28T01:22:47;100075.28;;;-8.04
76541;BMP280;65385;55.772;37.658;2023-02-28T01:23:48;100067.94;;;-8.07
76541;BMP280;65385;55.772;37.658;2023-02-28T01:24:49;100079.31;;;-8.01
76541;BMP280;65385;55.772;37.658;2023-02-28T01:25:50;100076.78;;;-8.01
76541;BMP280;65385;55.772;37.658;2023-02-28T01:26:51;100067.66;;;-8.04
76541;BMP280;65385;55.772;37.658;2023-02-28T01:27:52;100075.44;;;-8.06
76541;BMP280;65385;55.772;37.658;2023-02-28T01:28:53;100060.44;;;-8.09
76541;BMP280;65385;55.772;37.658;2023-02-28T01:29:53;100069.06;;;-8.11
76541;BMP280;65385;55.772;37.658;2023-02-28T01:30:54;100068.28;;;-8.12
76541;BMP280;65385;55.772;37.658;2023-02-28T01:31:55;100054.00;;;-8.13
76541;BMP280;65385;55.772;37.658;2023-02-28T01:32:55;100063.34;;;-8.13
76541;BMP280;65385;55.772;37.658;2023-02-28T01:33:56;100064.00;;;-8.11
76541;BMP280;65385;55.772;37.658;2023-02-28T01:34:56;100062.97;;;-8.09
76541;BMP280;65385;55.772;37.658;2023-02-28T01:36:01;100065.53;;;-8.09
76541;BMP280;65385;55.772;37.658;2023-02-28T01:37:03;100065.41;;;-8.07
76541;BMP280;65385;55.772;37.658;2023-02-28T01:38:04;100063.78;;;-8.08
76541;BMP280;65385;55.772;37.658;2023-02-28T01:39:04;100057.78;;;-8.07
76541;BMP280;65385;55.772;37.658;2023-02-28T01:40:05;100061.25;;;-8.08
76541;BMP280;65385;55.772;37.658;2023-02-28T01:41:07;100053.53;;;-8.07
76541;BMP280;65385;55.772;37.658;2023-02-28T01:42:09;100056.88;;;-8.06
76541;BMP280;65385;55.772;37.658;2023-02-28T01:43:24;100056.88;;;-8.06
76541;BMP280;65385;55.772;37.658;2023-02-28T01:45:04;100046.63;;;-8.04
76541;BMP280;65385;55.772;37.658;2023-02-28T01:46:06;100044.72;;;-8.02
76541;BMP280;65385;55.772;37.658;2023-02-28T01:47:07;100042.06;;;-8.01
76541;BMP280;65385;55.772;37.658;2023-02-28T01:48:08;100038.06;;;-8.03
76541;BMP280;65385;55.772;37.658;2023-02-28T01:49:13;100030.59;;;-8.05
76541;BMP280;65385;55.772;37.658;2023-02-28T01:50:18;100031.13;;;-8.01
76541;BMP280;65385;55.772;37.658;2023-02-28T01:51:28;100018.44;;;-8.01
76541;BMP280;65385;55.772;37.658;2023-02-28T01:52:30;100024.44;;;-8.02
76541;BMP280;65385;55.772;37.658;2023-02-28T01:53:36;100030.13;;;-7.99
76541;BMP280;65385;55.772;37.658;2023-02-28T01:54:37;100025.94;;;-8.00
76541;BMP280;65385;55.772;37.658;2023-02-28T01:55:39;100025.25;;;-8.02
76541;BMP280;65385;55.772;37.658;2023-02-28T01:56:55;100026.66;;;-7.98
76541;BMP280;65385;55.772;37.658;2023-02-28T01:58:00;100022.38;;;-7.97
76541;BMP280;65385;55.772;37.658;2023-02-28T01:59:02;100025.59;;;-7.95
76541;BMP280;65385;55.772;37.658;2023-02-28T02:00:09;100014.63;;;-7.96
76541;BMP280;65385;55.772;37.658;2023-02-28T02:01:14;100008.63;;;-7.95
76541;BMP280;65385;55.772;37.658;2023-02-28T02:02:23;100016.25;;;-7.95
76541;BMP280;65385;55.772;37.658;2023-02-28T02:03:24;100014.41;;;-7.93
76541;BMP280;65385;55.772;37.658;2023-02-28T02:04:27;100018.66;;;-7.93
76541;BMP280;65385;55.772;37.658;2023-02-28T02:05:32;99998.50;;;-7.95
76541;BMP280;65385;55.772;37.658;2023-02-28T02:06:40;100015.06;;;-7.91
76541;BMP280;65385;55.772;37.658;2023-02-28T02:07:47;99999.19;;;-7.93
76541;BMP280;65385;55.772;37.658;2023-02-28T02:08:48;100000.09;;;-7.94
76541;BMP280;65385;55.772;37.658;2023-02-28T02:09:49;99995.59;;;-7.90
76541;BMP280;65385;55.772;37.658;2023-02-28T02:10:57;100000.78;;;-7.92
76541;BMP280;65385;55.772;37.658;2023-02-28T02:12:00;99995.34;;;-7.87
76541;BMP280;65385;55.772;37.658;2023-02-28T02:17:36;100003.78;;;-7.87
76541;BMP280;65385;55.772;37.658;2023-02-28T02:18:46;99999.88;;;-7.91
76541;BMP280;65385;55.772;37.658;2023-02-28T02:24:39;100006.78;;;-7.93
76541;BMP280;65385;55.772;37.658;2023-02-28T02:25:54;99994.22;;;-7.94
76541;BMP280;65385;55.772;37.658;2023-02-28T02:28:30;99985.56;;;-7.92
76541;BMP280;65385;55.772;37.658;2023-02-28T02:32:34;99990.38;;;-7.89
76541;BMP280;65385;55.772;37.658;2023-02-28T02:35:56;99981.19;;;-7.90
76541;BMP280;65385;55.772;37.658;2023-02-28T02:37:08;99979.69;;;-7.92
76541;BMP280;65385;55.772;37.658;2023-02-28T02:39:47;99987.19;;;-7.91
76541;BMP280;65385;55.772;37.658;2023-02-28T02:40:58;99971.72;;;-7.88
76541;BMP280;65385;55.772;37.658;2023-02-28T02:42:01;99980.94;;;-7.87
76541;BMP280;65385;55.772;37.658;2023-02-28T02:43:19;99971.59;;;-7.86
76541;BMP280;65385;55.772;37.658;2023-02-28T02:44:46;99973.09;;;-7.84
76541;BMP280;65385;55.772;37.658;2023-02-28T02:45:52;99963.75;;;-7.83
76541;BMP280;65385;55.772;37.658;2023-02-28T02:47:11;99952.91;;;-7.85
76541;BMP280;65385;55.772;37.658;2023-02-28T02:48:16;99949.06;;;-7.80
76541;BMP280;65385;55.772;37.658;2023-02-28T02:49:37;99953.31;;;-7.80
76541;BMP280;65385;55.772;37.658;2023-02-28T02:50:42;99950.91;;;-7.82
76541;BMP280;65385;55.772;37.658;2023-02-28T02:51:46;99947.56;;;-7.82
76541;BMP280;65385;55.772;37.658;2023-02-28T02:52:53;99951.88;;;-7.83
76541;BMP280;65385;55.772;37.658;2023-02-28T02:54:09;99936.09;;;-7.86
76541;BMP280;65385;55.772;37.658;2023-02-28T02:55:13;99946.00;;;-7.83
76541;BMP280;65385;55.772;37.658;2023-02-28T02:56:18;99940.13;;;-7.84
76541;BMP280;65385;55.772;37.658;2023-02-28T02:57:23;99943.31;;;-7.82
76541;BMP280;65385;55.772;37.658;2023-02-28T02:58:29;99945.84;;;-7.82
76541;BMP280;65385;55.772;37.658;2023-02-28T02:59:33;99941.56;;;-7.81
76541;BMP280;65385;55.772;37.658;2023-02-28T03:00:43;99943.47;;;-7.83
76541;BMP280;65385;55.772;37.658;2023-02-28T03:01:45;99939.44;;;-7.86
76541;BMP280;65385;55.772;37.658;2023-02-28T03:02:47;99941.72;;;-7.83
76541;BMP280;65385;55.772;37.658;2023-02-28T03:03:49;99941.03;;;-7.85
76541;BMP280;65385;55.772;37.658;2023-02-28T03:04:57;99934.47;;;-7.87
76541;BMP280;65385;55.772;37.658;2023-02-28T03:06:02;99934.34;;;-7.86
76541;BMP280;65385;55.772;37.658;2023-02-28T03:07:04;99934.13;;;-7.83
76541;BMP280;65385;55.772;37.658;2023-02-28T03:08:05;99927.56;;;-7.85
76541;BMP280;65385;55.772;37.658;2023-02-28T03:09:05;99924.44;;;-7.89
76541;BMP280;65385;55.772;37.658;2023-02-28T03:10:29;99920.75;;;-7.85
76541;BMP280;65385;55.772;37.658;2023-02-28T03:11:31;99916.72;;;-7.87
76541;BMP280;65385;55.772;37.658;2023-02-28T03:12:41;99919.13;;;-7.86
76541;BMP280;65385;55.772;37.658;2023-02-28T03:15:33;99917.53;;;-7.87
76541;BMP280;65385;55.772;37.658;2023-02-28T03:18:06;99922.03;;;-7.90
76541;BMP280;65385;55.772;37.658;2023-02-28T03:20:47;99903.34;;;-7.89
76541;BMP280;65385;55.772;37.658;2023-02-28T03:24:19;99901.19;;;-7.94
76541;BMP280;65385;55.772;37.658;2023-02-28T03:25:31;99903.06;;;-7.96
76541;BMP280;65385;55.772;37.658;2023-02-28T03:26:38;99888.63;;;-7.95
76541;BMP280;65385;55.772;37.658;2023-02-28T03:29:39;99882.81;;;-7.86
76541;BMP280;65385;55.772;37.658;2023-02-28T03:30:49;99884.94;;;-7.91
76541;BMP280;65385;55.772;37.658;2023-02-28T03:31:59;99884.44;;;-7.85
76541;BMP280;65385;55.772;37.658;2023-02-28T03:33:03;99887.66;;;-7.83
76541;BMP280;65385;55.772;37.658;2023-02-28T03:35:30;99874.28;;;-7.85
76541;BMP280;65385;55.772;37.658;2023-02-28T03:36:38;99876.69;;;-7.84
76541;BMP280;65385;55.772;37.658;2023-02-28T03:37:44;99869.34;;;-7.87
76541;BMP280;65385;55.772;37.658;2023-02-28T03:38:51;99864.03;;;-7.84
76541;BMP280;65385;55.772;37.658;2023-02-28T03:40:00;99874.00;;;-7.82
76541;BMP280;65385;55.772;37.658;2023-02-28T03:41:10;99873.25;;;-7.83
76541;BMP280;65385;55.772;37.658;2023-02-28T03:42:25;99873.88;;;-7.81
76541;BMP280;65385;55.772;37.658;2023-02-28T03:43:33;99864.41;;;-7.79
76541;BMP280;65385;55.772;37.658;2023-02-28T03:44:42;99864.31;;;-7.77
76541;BMP280;65385;55.772;37.658;2023-02-28T03:45:43;99862.00;;;-7.80
76541;BMP280;65385;55.772;37.658;2023-02-28T03:46:54;99861.19;;;-7.81
76541;BMP280;65385;55.772;37.658;2023-02-28T03:48:05;99855.47;;;-7.83
76541;BMP280;65385;55.772;37.658;2023-02-28T03:49:13;99858.03;;;-7.83
76541;BMP280;65385;55.772;37.658;2023-02-28T03:51:23;99854.28;;;-7.79
76541;BMP280;65385;55.772;37.658;2023-02-28T03:52:28;99839.06;;;-7.79
76541;BMP280;65385;55.772;37.658;2023-02-28T03:53:37;99847.88;;;-7.83
76541;BMP280;65385;55.772;37.658;2023-02-28T03:54:50;99841.84;;;-7.82
76541;BMP280;65385;55.772;37.658;2023-02-28T03:56:06;99847.88;;;-7.83
76541;BMP280;65385;55.772;37.658;2023-02-28T03:58:39;99843.06;;;-7.86
76541;BMP280;65385;55.772;37.658;2023-02-28T03:59:53;99832.66;;;-7.83
76541;BMP280;65385;55.772;37.658;2023-02-28T04:01:25;99825.97;;;-7.84
76541;BMP280;65385;55.772;37.658;2023-02-28T04:02:27;99822.34;;;-7.81
76541;BMP280;65385;55.772;37.658;2023-02-28T04:03:28;99829.97;;;-7.81
76541;BMP280;65385;55.772;37.658;2023-02-28T04:04:29;99830.50;;;-7.78
76541;BMP280;65385;55.772;37.658;2023-02-28T04:05:30;99827.09;;;-7.77
76541;BMP280;65385;55.772;37.658;2023-02-28T04:06:32;99816.13;;;-7.77
76541;BMP280;65385;55.772;37.658;2023-02-28T04:07:33;99816.00;;;-7.76
76541;BMP280;65385;55.772;37.658;2023-02-28T04:08:34;99819.47;;;-7.77
76541;BMP280;65385;55.772;37.658;2023-02-28T04:09:35;99823.84;;;-7.79
76541;BMP280;65385;55.772;37.658;2023-02-28T04:10:35;99806.31;;;-7.82
76541;BMP280;65385;55.772;37.658;2023-02-28T04:11:40;99817.97;;;-7.79
76541;BMP280;65385;55.772;37.658;2023-02-28T04:12:40;99819.56;;;-7.78
76541;BMP280;65385;55.772;37.658;2023-02-28T04:13:41;99815.28;;;-7.78
76541;BMP280;65385;55.772;37.658;2023-02-28T04:14:41;99798.25;;;-7.76
76541;BMP280;65385;55.772;37.658;2023-02-28T04:15:42;99820.53;;;-7.69
76541;BMP280;65385;55.772;37.658;2023-02-28T04:16:42;99816.81;;;-7.65
76541;BMP280;65385;55.772;37.658;2023-02-28T04:17:43;99819.09;;;-7.62
76541;BMP280;65385;55.772;37.658;2023-02-28T04:18:44;99816.28;;;-7.59
76541;BMP280;65385;55.772;37.658;2023-02-28T04:19:44;99803.59;;;-7.59
76541;BMP280;65385;55.772;37.658;2023-02-28T04:20:44;99800.00;;;-7.57
76541;BMP280;65385;55.772;37.658;2023-02-28T04:21:48;99799.63;;;-7.52
76541;BMP280;65385;55.772;37.658;2023-02-28T04:22:49;99807.91;;;-7.50
76541;BMP280;65385;55.772;37.658;2023-02-28T04:23:49;99805.38;;;-7.50
76541;BMP280;65385;55.772;37.658;2023-02-28T04:24:49;99806.06;;;-7.48
76541;BMP280;65385;55.772;37.658;2023-02-28T04:25:50;99810.72;;;-7.44
76541;BMP280;65385;55.772;37.658;2023-02-28T04:26:54;99789.50;;;-7.43
76541;BMP280;65385;55.772;37.658;2023-02-28T04:27:55;99799.13;;;-7.37
76541;BMP280;65385;55.772;37.658;2023-02-28T04:28:55;99795.94;;;-7.39
76541;BMP280;65385;55.772;37.658;2023-02-28T04:29:56;99785.38;;;-7.34
76541;BMP280;65385;55.772;37.658;2023-02-28T04:30:59;99786.19;;;-7.24
76541;BMP280;65385;55.772;37.658;2023-02-28T04:32:00;99783.25;;;-7.19
76541;BMP280;65385;55.772;37.658;2023-02-28T04:33:01;99779.38;;;-7.14
76541;BMP280;65385;55.772;37.658;2023-02-28T04:34:02;99786.88;;;-7.03
76541;BMP280;65385;55.772;37.658;2023-02-28T04:35:03;99785.00;;;-6.91
76541;BMP280;65385;55.772;37.658;2023-02-28T04:36:06;99781.53;;;-6.80
76541;BMP280;65385;55.772;37.658;2023-02-28T04:37:07;99783.22;;;-6.71
76541;BMP280;65385;55.772;37.658;2023-02-28T04:38:08;99778.56;;;-6.66
76541;BMP280;65385;55.772;37.658;2023-02-28T04:39:08;99778.53;;;-6.56
76541;BMP280;65385;55.772;37.658;2023-02-28T04:40:10;99778.50;;;-6.47
76541;BMP280;65385;55.772;37.658;2023-02-28T04:41:13;99768.81;;;-6.34
76541;BMP280;65385;55.772;37.658;2023-02-28T04:42:13;99777.34;;;-6.15
76541;BMP280;65385;55.772;37.658;2023-02-28T04:43:14;99769.25;;;-6.01
76541;BMP280;65385;55.772;37.658;2023-02-28T04:44:15;99769.69;;;-5.88
76541;BMP280;65385;55.772;37.658;2023-02-28T04:45:16;99766.00;;;-5.76
76541;BMP280;65385;55.772;37.658;2023-02-28T04:46:17;99762.63;;;-5.67
76541;BMP280;65385;55.772;37.658;2023-02-28T04:47:18;99759.78;;;-5.46
76541;BMP280;65385;55.772;37.658;2023-02-28T04:48:19;99750.78;;;-5.40
76541;BMP280;65385;55.772;37.658;2023-02-28T04:49:19;99753.72;;;-5.35
76541;BMP280;65385;55.772;37.658;2023-02-28T04:50:20;99761.25;;;-5.26
76541;BMP280;65385;55.772;37.658;2023-02-28T04:51:20;99745.41;;;-5.19
76541;BMP280;65385;55.772;37.658;2023-02-28T04:52:21;99754.19;;;-5.14
76541;BMP280;65385;55.772;37.658;2023-02-28T04:53:22;99744.81;;;-5.13
76541;BMP280;65385;55.772;37.658;2023-02-28T04:54:22;99741.69;;;-5.07
76541;BMP280;65385;55.772;37.658;2023-02-28T04:55:23;99742.69;;;-5.00
76541;BMP280;65385;55.772;37.658;2023-02-28T04:56:23;99733.84;;;-4.88
76541;BMP280;65385;55.772;37.658;2023-02-28T04:57:24;99741.75;;;-4.73
76541;BMP280;65385;55.772;37.658;2023-02-28T04:58:24;99739.22;;;-4.65
76541;BMP280;65385;55.772;37.658;2023-02-28T04:59:25;99734.84;;;-4.55
76541;BMP280;65385;55.772;37.658;2023-02-28T05:00:25;99718.63;;;-4.38
76541;BMP280;65385;55.772;37.658;2023-02-28T05:01:33;99730.03;;;-4.16
76541;BMP280;65385;55.772;37.658;2023-02-28T05:02:35;99722.91;;;-4.04
76541;BMP280;65385;55.772;37.658;2023-02-28T05:03:35;99721.97;;;-3.95
76541;BMP280;65385;55.772;37.658;2023-02-28T05:04:36;99724.22;;;-3.84
76541;BMP280;65385;55.772;37.658;2023-02-28T05:05:37;99714.34;;;-3.71
76541;BMP280;65385;55.772;37.658;2023-02-28T05:06:37;99713.56;;;-3.55
76541;BMP280;65385;55.772;37.658;2023-02-28T05:07:38;99711.53;;;-3.44
76541;BMP280;65385;55.772;37.658;2023-02-28T05:08:39;99693.13;;;-3.39
76541;BMP280;65385;55.772;37.658;2023-02-28T05:09:40;99693.56;;;-3.27
76541;BMP280;65385;55.772;37.658;2023-02-28T05:10:40;99694.06;;;-3.24
76541;BMP280;65385;55.772;37.658;2023-02-28T05:11:41;99698.38;;;-3.08
76541;BMP280;65385;55.772;37.658;2023-02-28T05:12:41;99690.69;;;-3.00
76541;BMP280;65385;55.772;37.658;2023-02-28T05:13:42;99705.53;;;-2.87
76541;BMP280;65385;55.772;37.658;2023-02-28T05:14:42;99688.34;;;-2.71
76541;BMP280;65385;55.772;37.658;2023-02-28T05:15:44;99680.97;;;-2.65
76541;BMP280;65385;55.772;37.658;2023-02-28T05:16:44;99680.66;;;-2.62
76541;BMP280;65385;55.772;37.658;2023-02-28T05:17:45;99661.72;;;-2.53
76541;BMP280;65385;55.772;37.658;2023-02-28T05:18:46;99657.38;;;-2.45
76541;BMP280;65385;55.772;37.658;2023-02-28T05:19:46;99668.34;;;-2.28
76541;BMP280;65385;55.772;37.658;2023-02-28T05:20:47;99664.94;;;-2.20
76541;BMP280;65385;55.772;37.658;2023-02-28T05:21:50;99663.09;;;-2.12
76541;BMP280;65385;55.772;37.658;2023-02-28T05:22:51;99661.03;;;-1.94
76541;BMP280;65385;55.772;37.658;2023-02-28T05:23:53;99669.13;;;-1.82
76541;BMP280;65385;55.772;37.658;2023-02-28T05:24:54;99646.97;;;-1.75
76541;BMP280;65385;55.772;37.658;2023-02-28T05:25:55;99665.63;;;-1.66
76541;BMP280;65385;55.772;37.658;2023-02-28T05:26:55;99663.97;;;-1.59
76541;BMP280;65385;55.772;37.658;2023-02-28T05:27:56;99647.19;;;-1.47
76541;BMP280;65385;55.772;37.658;2023-02-28T05:28:57;99644.19;;;-1.36
76541;BMP280;65385;55.772;37.658;2023-02-28T05:29:57;99648.69;;;-1.38
76541;BMP280;65385;55.772;37.658;2023-02-28T05:30:59;99646.75;;;-1.36
76541;BMP280;65385;55.772;37.658;2023-02-28T05:31:59;99654.13;;;-1.18
76541;BMP280;65385;55.772;37.658;2023-02-28T05:33:00;99648.38;;;-1.05
76541;BMP280;65385;55.772;37.658;2023-02-28T05:34:01;99644.72;;;-0.82
76541;BMP280;65385;55.772;37.658;2023-02-28T05:35:01;99642.00;;;-0.59
76541;BMP280;65385;55.772;37.658;2023-02-28T05:36:04;99639.13;;;-0.49
76541;BMP280;65385;55.772;37.658;2023-02-28T05:37:06;99634.31;;;-0.38
76541;BMP280;65385;55.772;37.658;2023-02-28T05:38:07;99626.34;;;-0.43
76541;BMP280;65385;55.772;37.658;2023-02-28T05:39:08;99619.88;;;-0.39
76541;BMP280;65385;55.772;37.658;2023-02-28T05:40:12;99629.94;;;-0.22
76541;BMP280;65385;55.772;37.658;2023-02-28T05:41:13;99629.75;;;-0.21
76541;BMP280;65385;55.772;37.658;2023-02-28T05:42:14;99619.91;;;-0.17
76541;BMP280;65385;55.772;37.658;2023-02-28T05:43:14;99613.28;;;-0.05
76541;BMP280;65385;55.772;37.658;2023-02-28T05:44:15;99607.81;;;-0.23
76541;BMP280;65385;55.772;37.658;2023-02-28T05:45:16;99610.00;;;-0.20
76541;BMP280;65385;55.772;37.658;2023-02-28T05:46:17;99608.16;;;-0.26
76541;BMP280;65385;55.772;37.658;2023-02-28T05:47:18;99608.44;;;-0.36
76541;BMP280;65385;55.772;37.658;2023-02-28T05:48:18;99603.66;;;-0.24
76541;BMP280;65385;55.772;37.658;2023-02-28T05:49:18;99606.94;;;-0.09
76541;BMP280;65385;55.772;37.658;2023-02-28T05:50:19;99607.41;;;0.01
76541;BMP280;65385;55.772;37.658;2023-02-28T05:51:20;99608.75;;;-0.03
76541;BMP280;65385;55.772;37.658;2023-02-28T05:52:20;99595.91;;;-0.03
76541;BMP280;65385;55.772;37.658;2023-02-28T05:53:21;99599.81;;;-0.07
76541;BMP280;65385;55.772;37.658;2023-02-28T05:54:22;99610.09;;;-0.07
76541;BMP280;65385;55.772;37.658;2023-02-28T05:55:22;99573.41;;;-0.01
76541;BMP280;65385;55.772;37.658;2023-02-28T05:56:23;99592.47;;;0.11
76541;BMP280;65385;55.772;37.658;2023-02-28T05:57:24;99588.59;;;0.22
76541;BMP280;65385;55.772;37.658;2023-02-28T05:58:25;99600.38;;;0.16
76541;BMP280;65385;55.772;37.658;2023-02-28T05:59:29;99594.50;;;0.22
76541;BMP280;65385;55.772;37.658;2023-02-28T06:00:30;99590.06;;;0.44
76541;BMP280;65385;55.772;37.658;2023-02-28T06:01:33;99569.78;;;0.62
76541;BMP280;65385;55.772;37.658;2023-02-28T06:02:34;99577.28;;;0.57
76541;BMP280;65385;55.772;37.658;2023-02-28T06:03:34;99580.41;;;0.53
76541;BMP280;65385;55.772;37.658;2023-02-28T06:04:35;99590.69;;;0.53
76541;BMP280;65385;55.772;37.658;2023-02-28T06:05:35;99579.25;;;0.55
76541;BMP280;65385;55.772;37.658;2023-02-28T06:06:36;99578.25;;;0.56
76541;BMP280;65385;55.772;37.658;2023-02-28T06:07:37;99577.16;;;0.31
76541;BMP280;65385;55.772;37.658;2023-02-28T06:08:37;99575.91;;;0.20
76541;BMP280;65385;55.772;37.658;2023-02-28T06:09:38;99577.41;;;0.08
76541;BMP280;65385;55.772;37.658;2023-02-28T06:10:38;99562.59;;;0.10
76541;BMP280;65385;55.772;37.658;2023-02-28T06:11:39;99554.38;;;0.21
76541;BMP280;65385;55.772;37.658;2023-02-28T06:12:40;99542.94;;;0.30
76541;BMP280;65385;55.772;37.658;2023-02-28T06:13:44;99534.88;;;0.47
76541;BMP280;65385;55.772;37.658;2023-02-28T06:14:44;99522.03;;;0.47
76541;BMP280;65385;55.772;37.658;2023-02-28T06:15:45;99546.75;;;0.48
76541;BMP280;65385;55.772;37.658;2023-02-28T06:16:46;99537.44;;;0.47
76541;BMP280;65385;55.772;37.658;2023-02-28T06:17:47;99538.06;;;0.49
76541;BMP280;65385;55.772;37.658;2023-02-28T06:18:48;99544.66;;;0.64
76541;BMP280;65385;55.772;37.658;2023-02-28T06:19:48;99538.31;;;0.67
76541;BMP280;65385;55.772;37.658;2023-02-28T06:20:54;99538.25;;;0.95
76541;BMP280;65385;55.772;37.658;2023-02-28T06:21:56;99538.28;;;1.14
76541;BMP280;65385;55.772;37.658;2023-02-28T06:22:57;99539.25;;;1.07
76541;BMP280;65385;55.772;37.658;2023-02-28T06:24:03;99531.56;;;1.20
76541;BMP280;65385;55.772;37.658;2023-02-28T06:25:05;99531.53;;;1.13
76541;BMP280;65385;55.772;37.658;2023-02-28T06:26:06;99537.69;;;1.26
76541;BMP280;65385;55.772;37.658;2023-02-28T06:27:07;99525.22;;;1.42